Time;durP1;ratioP1;P1;durP2;ratioP2;P2;SDS_P1;SDS_P2;PMS_P1;PMS_P2;Temp;Humidity;BMP_temperature;BMP_pressure;BME280_temperature;BME280_humidity;BME280_pressure;Samples;Min_cycle;Max_cycle;Signal;HPM_P1;HPM_P2
2022/07/12 00:02:19;;;;;;;0.73;0.60;;;;;;;25.91;44.83;102350.31;5028760;28;20395;-69
2022/07/12 00:04:44;;;;;;;0.68;0.50;;;;;;;25.90;44.71;102356.56;5028826;28;20064;-69
2022/07/12 00:07:10;;;;;;;0.70;0.60;;;;;;;25.92;44.74;102356.53;5029228;28;20068;-69
2022/07/12 00:09:35;;;;;;;0.50;0.40;;;;;;;25.89;44.77;102351.25;5030384;28;20057;-70
2022/07/12 00:12:00;;;;;;;0.50;0.50;;;;;;;25.90;44.58;102351.22;5028113;28;20034;-70
2022/07/12 00:14:26;;;;;;;0.60;0.57;;;;;;;25.89;44.70;102341.44;5029205;28;20499;-69
2022/07/12 00:16:51;;;;;;;0.52;0.52;;;;;;;25.87;44.56;102345.94;5028991;28;20408;-69
2022/07/12 00:19:17;;;;;;;0.40;0.40;;;;;;;25.86;44.76;102357.56;5028459;28;20403;-70
2022/07/12 00:21:42;;;;;;;0.50;0.50;;;;;;;25.84;44.67;102354.94;5028610;28;20029;-70
2022/07/12 00:24:08;;;;;;;0.50;0.50;;;;;;;25.87;44.49;102359.31;5029010;28;20140;-70
2022/07/12 00:26:33;;;;;;;0.50;0.50;;;;;;;25.85;44.64;102347.81;5028497;28;20026;-69
2022/07/12 00:28:59;;;;;;;0.50;0.50;;;;;;;25.87;44.54;102343.28;5028527;28;20033;-70
2022/07/12 00:31:24;;;;;;;0.40;0.40;;;;;;;25.88;44.80;102338.81;5026657;28;21387;-70
2022/07/12 00:33:53;;;;;;;0.50;0.50;;;;;;;25.82;44.77;102339.84;5028965;28;20038;-70
2022/07/12 00:36:19;;;;;;;0.50;0.50;;;;;;;25.82;44.77;102338.06;5028363;28;20022;-69
2022/07/12 00:38:45;;;;;;;0.75;0.50;;;;;;;25.84;44.79;102333.56;5028626;28;20116;-69
2022/07/12 00:41:10;;;;;;;0.40;0.40;;;;;;;25.81;44.80;102330.97;5027034;28;20049;-69
2022/07/12 00:43:35;;;;;;;0.52;0.50;;;;;;;25.80;44.59;102331.88;5028680;28;20045;-70
2022/07/12 00:46:01;;;;;;;0.50;0.50;;;;;;;25.80;44.66;102323.84;5028659;28;20384;-70
2022/07/12 00:48:27;;;;;;;0.60;0.50;;;;;;;25.81;44.60;102320.28;5010982;28;20061;-70
2022/07/12 00:50:52;;;;;;;0.50;0.50;;;;;;;25.79;44.61;102318.59;5027933;28;20619;-70
2022/07/12 00:53:23;;;;;;;0.70;0.50;;;;;;;25.78;44.58;102319.50;5027852;28;20029;-70
2022/07/12 00:55:49;;;;;;;0.60;0.50;;;;;;;25.80;44.58;102329.19;5027865;28;20095;-70
2022/07/12 00:58:15;;;;;;;0.43;0.43;;;;;;;25.80;44.42;102321.19;5028193;28;20041;-70
2022/07/12 01:00:40;;;;;;;0.52;0.50;;;;;;;25.81;44.46;102333.63;5027394;28;20065;-70
2022/07/12 01:03:05;;;;;;;0.60;0.50;;;;;;;25.79;44.79;102331.94;5028345;28;20044;-70
2022/07/12 01:05:31;;;;;;;0.70;0.60;;;;;;;25.78;44.36;102333.72;5010631;28;20096;-70
2022/07/12 01:07:58;;;;;;;0.43;0.43;;;;;;;25.79;44.42;102331.94;5028135;28;20071;-70
2022/07/12 01:10:23;;;;;;;0.43;0.40;;;;;;;25.78;44.44;102327.50;5027337;28;20502;-70
2022/07/12 01:12:49;;;;;;;0.60;0.50;;;;;;;25.80;44.46;102334.53;5027074;28;20057;-70
2022/07/12 01:15:15;;;;;;;0.50;0.50;;;;;;;25.76;44.61;102340.03;5028113;28;20130;-70
2022/07/12 01:17:44;;;;;;;0.50;0.50;;;;;;;25.76;44.58;102334.69;5025582;28;20484;-70
2022/07/12 01:20:10;;;;;;;0.43;0.43;;;;;;;25.75;44.40;102339.13;5027760;28;20039;-70
2022/07/12 01:22:41;;;;;;;1.02;0.50;;;;;;;25.74;44.51;102332.03;5027022;28;20033;-69
2022/07/12 01:25:06;;;;;;;0.90;0.50;;;;;;;25.73;44.39;102337.44;5027832;28;20028;-70
2022/07/12 01:27:32;;;;;;;0.60;0.50;;;;;;;25.75;44.43;102344.47;5027654;28;20383;-70
2022/07/12 01:29:58;;;;;;;0.40;0.40;;;;;;;25.72;44.58;102346.38;5027576;28;20079;-70
2022/07/12 01:32:26;;;;;;;0.40;0.40;;;;;;;25.72;44.52;102347.25;5026390;28;20033;-70
2022/07/12 01:35:03;;;;;;;0.50;0.50;;;;;;;25.69;44.46;102352.66;5027721;28;20037;-70
2022/07/12 01:37:33;;;;;;;0.43;0.43;;;;;;;25.70;44.48;102359.75;5027193;28;20108;-70
2022/07/12 01:39:59;;;;;;;0.45;0.45;;;;;;;25.67;44.64;102364.31;5026312;28;20029;-70
2022/07/12 01:42:26;;;;;;;0.40;0.40;;;;;;;25.69;44.61;102365.13;5025910;28;20025;-70
2022/07/12 01:44:52;;;;;;;0.40;0.40;;;;;;;25.70;44.38;102380.25;5027868;28;20037;-70
2022/07/12 01:47:19;;;;;;;0.40;0.40;;;;;;;25.68;44.54;102374.94;5026135;28;20167;-70
2022/07/12 01:49:45;;;;;;;0.40;0.40;;;;;;;25.68;44.36;102380.28;5026755;28;20029;-70
2022/07/12 01:52:11;;;;;;;0.50;0.50;;;;;;;25.66;44.36;102374.13;5026615;28;20177;-70
2022/07/12 01:54:36;;;;;;;0.40;0.40;;;;;;;25.67;44.30;102378.56;5027269;28;20083;-70
2022/07/12 01:57:04;;;;;;;0.45;0.45;;;;;;;25.65;44.60;102377.72;5027070;28;20454;-70
2022/07/12 01:59:30;;;;;;;0.55;0.45;;;;;;;25.66;44.31;102379.47;5026259;28;20060;-70
2022/07/12 02:01:56;;;;;;;0.43;0.43;;;;;;;25.67;44.44;102378.56;5025050;28;20037;-70
2022/07/12 02:04:22;;;;;;;0.55;0.50;;;;;;;25.67;44.57;102377.69;5025664;28;20036;-69
2022/07/12 02:06:48;;;;;;;0.70;0.57;;;;;;;25.65;44.31;102369.69;5026692;28;20045;-70
2022/07/12 02:09:14;;;;;;;0.45;0.45;;;;;;;25.66;44.50;102370.56;5027172;28;20079;-70
2022/07/12 02:11:41;;;;;;;1.25;0.50;;;;;;;25.65;44.42;102369.69;5026444;28;20029;-70
2022/07/12 02:14:07;;;;;;;0.40;0.40;;;;;;;25.66;44.36;102366.13;5026926;28;20033;-70
2022/07/12 02:16:32;;;;;;;0.63;0.40;;;;;;;25.66;44.38;102370.56;5027036;28;20059;-70
2022/07/12 02:18:58;;;;;;;0.40;0.40;;;;;;;25.67;44.28;102369.66;5025421;28;20038;-70
2022/07/12 02:21:23;;;;;;;0.47;0.40;;;;;;;25.65;44.09;102355.47;5026365;28;20415;-70
2022/07/12 02:23:49;;;;;;;0.50;0.50;;;;;;;25.62;44.18;102356.41;5026929;28;20033;-69
2022/07/12 02:26:15;;;;;;;0.43;0.43;;;;;;;25.60;44.39;102355.59;5026341;28;20037;-70
2022/07/12 02:28:40;;;;;;;0.50;0.43;;;;;;;25.62;44.31;102366.19;5026785;28;20072;-70
2022/07/12 02:31:06;;;;;;;0.40;0.40;;;;;;;25.59;44.48;102353.81;5026803;28;20049;-70
2022/07/12 02:33:31;;;;;;;0.40;0.40;;;;;;;25.62;44.31;102358.19;5026515;28;20745;-70
2022/07/12 02:35:56;;;;;;;0.40;0.40;;;;;;;25.61;44.24;102353.78;5026613;28;20025;-70
2022/07/12 02:38:22;;;;;;;0.45;0.40;;;;;;;25.56;44.40;102348.50;5026135;28;20025;-70
2022/07/12 02:40:53;;;;;;;0.40;0.40;;;;;;;25.58;44.27;102354.72;5026337;28;20132;-70
2022/07/12 02:43:23;;;;;;;0.40;0.40;;;;;;;25.56;44.15;102359.19;5026898;28;20036;-70
2022/07/12 02:45:49;;;;;;;0.40;0.40;;;;;;;25.57;44.31;102354.75;5026649;28;20018;-70
2022/07/12 02:48:14;;;;;;;0.50;0.50;;;;;;;25.56;44.53;102351.19;5003200;28;20040;-70
2022/07/12 02:50:40;;;;;;;0.40;0.40;;;;;;;25.56;44.20;102358.31;5025431;28;20166;-70
2022/07/12 02:53:06;;;;;;;0.50;0.50;;;;;;;25.56;44.33;102348.50;5026484;28;20029;-70
2022/07/12 02:55:32;;;;;;;0.40;0.40;;;;;;;25.57;44.33;102354.75;5026270;28;20411;-70
2022/07/12 02:57:57;;;;;;;0.52;0.47;;;;;;;25.54;44.43;102353.03;5025753;28;20037;-70
2022/07/12 03:00:23;;;;;;;0.40;0.40;;;;;;;25.57;44.05;102342.28;5024719;28;20479;-70
2022/07/12 03:02:48;;;;;;;0.40;0.40;;;;;;;25.54;44.39;102338.81;5025635;28;20496;-70
2022/07/12 03:05:13;;;;;;;0.40;0.40;;;;;;;25.54;44.15;102342.34;5026235;28;20495;-70
2022/07/12 03:07:39;;;;;;;0.70;0.50;;;;;;;25.55;44.41;102345.91;5025258;28;20030;-70
2022/07/12 03:10:05;;;;;;;0.68;0.40;;;;;;;25.55;44.02;102346.78;5026732;28;20103;-70
2022/07/12 03:12:30;;;;;;;0.40;0.40;;;;;;;25.52;44.25;102345.97;5026212;28;20033;-70
2022/07/12 03:14:56;;;;;;;0.47;0.47;;;;;;;25.51;44.12;102350.44;5025066;28;20033;-70
2022/07/12 03:17:22;;;;;;;0.50;0.47;;;;;;;25.50;43.96;102348.66;5025883;28;20550;-70
2022/07/12 03:19:47;;;;;;;0.73;0.40;;;;;;;25.49;44.02;102346.06;5025797;28;20529;-69
2022/07/12 03:22:12;;;;;;;0.38;0.38;;;;;;;25.48;43.99;102345.19;5025649;28;20032;-70
2022/07/12 03:24:38;;;;;;;0.40;0.40;;;;;;;25.49;43.92;102344.28;5026309;28;20025;-69
2022/07/12 03:27:03;;;;;;;0.43;0.40;;;;;;;25.51;43.92;102347.75;5026265;28;20033;-69
2022/07/12 03:29:29;;;;;;;0.40;0.40;;;;;;;25.48;44.02;102350.53;5025963;28;20034;-69
2022/07/12 03:31:54;;;;;;;0.50;0.50;;;;;;;25.49;44.11;102354.94;5025349;28;20044;-70
2022/07/12 03:34:19;;;;;;;0.40;0.40;;;;;;;25.50;43.74;102347.78;5026255;28;20036;-70
2022/07/12 03:36:45;;;;;;;0.40;0.40;;;;;;;25.49;43.87;102354.06;5025992;28;20029;-69
2022/07/12 03:39:11;;;;;;;0.40;0.40;;;;;;;25.49;44.05;102346.94;5026073;28;20034;-70
2022/07/12 03:41:36;;;;;;;0.40;0.40;;;;;;;25.47;43.93;102343.41;5027843;28;20057;-70
2022/07/12 03:44:02;;;;;;;0.40;0.40;;;;;;;25.46;44.07;102339.00;5029457;28;20034;-69
2022/07/12 03:46:27;;;;;;;0.40;0.40;;;;;;;25.45;43.94;102351.47;5029690;28;20025;-69
2022/07/12 03:48:53;;;;;;;0.35;0.32;;;;;;;25.46;44.00;102347.00;5029233;28;20058;-70
2022/07/12 03:51:18;;;;;;;0.43;0.40;;;;;;;25.46;44.02;102341.66;5028686;28;20084;-70
2022/07/12 03:53:43;;;;;;;0.50;0.50;;;;;;;25.45;43.91;102332.78;5029665;28;20029;-70
2022/07/12 03:56:09;;;;;;;0.70;0.40;;;;;;;25.42;43.86;102332.88;5028220;28;20033;-69
2022/07/12 03:58:34;;;;;;;0.40;0.40;;;;;;;25.41;44.06;102322.22;5029686;28;20036;-70
2022/07/12 04:00:59;;;;;;;0.40;0.40;;;;;;;25.42;43.98;102330.19;5027367;28;20090;-70
2022/07/12 04:03:25;;;;;;;0.55;0.40;;;;;;;25.42;43.78;102334.66;5029161;28;20121;-70
2022/07/12 04:05:50;;;;;;;0.40;0.40;;;;;;;25.42;43.91;102337.31;5029539;28;20049;-70
2022/07/12 04:08:16;;;;;;;0.43;0.40;;;;;;;25.41;44.11;102336.44;5029416;28;20064;-70
2022/07/12 04:10:41;;;;;;;0.60;0.40;;;;;;;25.40;43.72;102341.81;5028536;28;20064;-69
2022/07/12 04:13:07;;;;;;;0.40;0.40;;;;;;;25.39;43.84;102338.25;5011997;28;20034;-70
2022/07/12 04:15:32;;;;;;;0.40;0.40;;;;;;;25.41;43.87;102338.22;5028797;28;20083;-70
2022/07/12 04:17:57;;;;;;;0.70;0.40;;;;;;;25.41;44.07;102335.56;5028218;28;20087;-70
2022/07/12 04:20:23;;;;;;;0.35;0.35;;;;;;;25.40;44.06;102339.16;5028803;28;20082;-69
2022/07/12 04:22:48;;;;;;;0.35;0.35;;;;;;;25.40;43.84;102336.47;5010861;28;20064;-69
2022/07/12 04:25:14;;;;;;;0.40;0.40;;;;;;;25.40;43.49;102342.69;5028990;28;20029;-69
2022/07/12 04:27:39;;;;;;;0.45;0.40;;;;;;;25.40;43.91;102348.03;5028935;28;20037;-70
2022/07/12 04:30:05;;;;;;;0.40;0.40;;;;;;;25.39;43.81;102348.94;5028999;28;20080;-70
2022/07/12 04:32:30;;;;;;;0.38;0.38;;;;;;;25.42;43.90;102348.00;5028186;28;20083;-69
2022/07/12 04:34:56;;;;;;;0.30;0.30;;;;;;;25.39;43.56;102348.06;5027318;28;20037;-69
2022/07/12 04:37:21;;;;;;;0.73;0.40;;;;;;;25.40;43.72;102356.03;5028550;28;20033;-70
2022/07/12 04:39:46;;;;;;;0.45;0.45;;;;;;;25.40;43.67;102357.84;5028433;28;20042;-70
2022/07/12 04:42:12;;;;;;;0.38;0.38;;;;;;;25.41;43.70;102356.94;5028588;28;20264;-70
2022/07/12 04:44:37;;;;;;;0.40;0.40;;;;;;;25.40;43.67;102348.03;5028819;28;20079;-70
2022/07/12 04:47:03;;;;;;;0.35;0.30;;;;;;;25.43;43.66;102347.94;5028424;28;20029;-70
2022/07/12 04:49:28;;;;;;;0.38;0.38;;;;;;;25.39;43.63;102356.94;5027796;28;20025;-70
2022/07/12 04:51:53;;;;;;;0.30;0.30;;;;;;;25.39;43.47;102350.72;5025957;28;20057;-69
2022/07/12 04:54:19;;;;;;;0.77;0.30;;;;;;;25.44;43.44;102357.72;5027794;28;20053;-69
2022/07/12 04:56:44;;;;;;;0.40;0.40;;;;;;;25.41;43.53;102355.13;5028234;28;20507;-69
2022/07/12 04:59:09;;;;;;;0.30;0.30;;;;;;;25.40;43.48;102352.50;5028415;28;20029;-70
2022/07/12 05:01:35;;;;;;;0.85;0.50;;;;;;;25.41;43.38;102357.81;5027385;28;20607;-70
2022/07/12 05:04:00;;;;;;;0.40;0.30;;;;;;;25.41;43.36;102354.25;5028103;28;20738;-70
2022/07/12 05:06:26;;;;;;;0.38;0.30;;;;;;;25.43;43.37;102355.09;5028152;28;20372;-70
2022/07/12 05:08:51;;;;;;;0.32;0.32;;;;;;;25.43;43.48;102352.44;5027416;28;20038;-70
2022/07/12 05:11:17;;;;;;;0.55;0.30;;;;;;;25.42;43.36;102354.22;5025898;28;20041;-70
2022/07/12 05:13:43;;;;;;;0.28;0.28;;;;;;;25.41;43.40;102365.81;5027838;28;20105;-70
2022/07/12 05:16:08;;;;;;;0.30;0.30;;;;;;;25.39;43.28;102364.97;5027669;28;20030;-70
2022/07/12 05:18:34;;;;;;;0.47;0.30;;;;;;;25.40;43.20;102373.84;5027656;28;20651;-69
2022/07/12 05:20:59;;;;;;;0.40;0.40;;;;;;;25.39;43.45;102364.09;5027618;28;20171;-70
2022/07/12 05:23:25;;;;;;;0.35;0.35;;;;;;;25.42;43.54;102390.72;5027410;28;20041;-70
2022/07/12 05:25:50;;;;;;;0.40;0.40;;;;;;;25.41;43.21;102376.50;5027627;28;20106;-70
2022/07/12 05:28:16;;;;;;;0.85;0.30;;;;;;;25.41;43.12;102375.63;5027746;28;20104;-70
2022/07/12 05:30:43;;;;;;;0.38;0.38;;;;;;;25.43;43.10;102376.47;5027447;28;20033;-70
2022/07/12 05:33:08;;;;;;;0.20;0.20;;;;;;;25.47;43.08;102370.13;5027068;28;20025;-70
2022/07/12 05:35:33;;;;;;;0.40;0.40;;;;;;;25.48;43.08;102384.34;5027194;28;20022;-70
2022/07/12 05:38:01;;;;;;;0.40;0.30;;;;;;;25.49;42.97;102384.31;5027455;28;20090;-70
2022/07/12 05:40:26;;;;;;;0.32;0.32;;;;;;;25.54;43.04;102387.75;5026711;28;20036;-70
2022/07/12 05:42:51;;;;;;;0.47;0.40;;;;;;;25.53;42.92;102372.63;5025711;28;20037;-70
2022/07/12 05:45:17;;;;;;;0.40;0.40;;;;;;;25.55;42.72;102377.94;5027361;28;20025;-70
2022/07/12 05:47:42;;;;;;;0.40;0.40;;;;;;;25.56;42.79;102369.88;5027145;28;20068;-70
2022/07/12 05:50:08;;;;;;;0.52;0.40;;;;;;;25.57;42.95;102371.66;5027167;28;20037;-69
2022/07/12 05:55:17;;;;;;;;;;;;;;;25.63;42.72;102371.50;5027319;28;20522;-70
2022/07/12 05:57:42;;;;;;;0.30;0.30;;;;;;;25.66;42.83;102365.22;5027322;28;19929;-70
2022/07/12 06:00:09;;;;;;;0.40;0.38;;;;;;;25.67;42.81;102367.00;5027134;28;20415;-70
2022/07/12 06:02:34;;;;;;;0.40;0.40;;;;;;;25.65;42.96;102377.72;5025876;28;20555;-70
2022/07/12 06:04:59;;;;;;;0.40;0.40;;;;;;;25.68;43.07;102374.06;5025700;28;20083;-70
2022/07/12 06:07:25;;;;;;;0.40;0.40;;;;;;;25.69;42.98;102370.47;5026800;28;20035;-70
2022/07/12 06:09:50;;;;;;;0.63;0.40;;;;;;;25.71;42.82;102377.56;5026058;28;20562;-70
2022/07/12 06:12:15;;;;;;;0.30;0.30;;;;;;;25.68;43.00;102376.72;5026721;28;20080;-70
2022/07/12 06:14:41;;;;;;;0.40;0.40;;;;;;;25.68;42.73;102376.72;5026668;28;20120;-70
2022/07/12 06:17:07;;;;;;;0.30;0.30;;;;;;;25.69;42.98;102381.16;5026644;28;20029;-70
2022/07/12 06:19:33;;;;;;;0.30;0.30;;;;;;;25.70;42.93;102372.25;5026640;28;20029;-70
2022/07/12 06:21:58;;;;;;;0.40;0.40;;;;;;;25.68;42.89;102379.41;5024417;28;20455;-70
2022/07/12 06:24:24;;;;;;;0.38;0.38;;;;;;;25.68;42.76;102382.94;5026128;28;20034;-70
2022/07/12 06:26:49;;;;;;;0.43;0.40;;;;;;;25.67;42.83;102378.56;5026630;28;20418;-70
2022/07/12 06:29:14;;;;;;;0.43;0.40;;;;;;;25.69;42.74;102383.84;5026720;28;20048;-70
2022/07/12 06:31:40;;;;;;;0.38;0.35;;;;;;;25.70;42.99;102381.13;5025394;28;20112;-70
2022/07/12 06:34:05;;;;;;;0.40;0.35;;;;;;;25.71;43.00;102392.69;5026620;28;20616;-70
2022/07/12 06:36:30;;;;;;;0.50;0.40;;;;;;;25.73;42.57;102391.75;5026325;28;20048;-70
2022/07/12 06:38:56;;;;;;;0.40;0.40;;;;;;;25.72;43.16;102389.13;5026042;28;20379;-70
2022/07/12 06:41:21;;;;;;;0.63;0.32;;;;;;;25.74;43.02;102392.59;5025694;28;20033;-70
2022/07/12 06:43:46;;;;;;;0.40;0.40;;;;;;;25.71;43.33;102392.69;5026793;28;20090;-70
2022/07/12 06:46:12;;;;;;;0.40;0.40;;;;;;;25.71;43.12;102398.91;5025833;28;20022;-70
2022/07/12 06:48:37;;;;;;;0.50;0.40;;;;;;;25.73;43.15;102397.09;5026452;28;20051;-70
2022/07/12 06:51:03;;;;;;;0.30;0.30;;;;;;;25.75;43.08;102397.03;5025763;28;20042;-70
2022/07/12 06:53:28;;;;;;;0.50;0.40;;;;;;;25.78;43.00;102397.84;5025684;28;20044;-70
2022/07/12 06:55:53;;;;;;;0.88;0.43;;;;;;;25.80;43.00;102398.66;5025666;28;20026;-70
2022/07/12 06:58:19;;;;;;;0.40;0.40;;;;;;;25.81;43.06;102396.88;5026561;28;20044;-70
2022/07/12 07:00:44;;;;;;;0.40;0.40;;;;;;;25.83;42.94;102395.06;5025887;28;20564;-69
2022/07/12 07:03:10;;;;;;;0.40;0.40;;;;;;;25.84;42.97;102397.69;5025933;28;20132;-70
2022/07/12 07:05:38;;;;;;;0.50;0.50;;;;;;;25.86;42.97;102395.84;5026504;28;20040;-70
2022/07/12 07:08:05;;;;;;;0.82;0.40;;;;;;;25.89;42.84;102394.00;5026277;28;20589;-70
2022/07/12 07:10:30;;;;;;;0.40;0.40;;;;;;;25.95;42.95;102396.53;5025504;28;20034;-70
2022/07/12 07:12:56;;;;;;;0.45;0.45;;;;;;;25.97;42.77;102390.22;5025835;28;20076;-70
2022/07/12 07:15:21;;;;;;;0.45;0.45;;;;;;;26.02;42.85;102392.78;5025741;28;20061;-70
2022/07/12 07:17:46;;;;;;;0.73;0.50;;;;;;;26.06;42.55;102399.78;5030233;28;20037;-70
2022/07/12 07:20:12;;;;;;;0.40;0.40;;;;;;;26.08;42.51;102398.84;5029709;28;20074;-70
2022/07/12 07:22:38;;;;;;;0.50;0.50;;;;;;;26.11;42.51;102388.03;5029757;28;20676;-70
2022/07/12 07:25:05;;;;;;;0.43;0.43;;;;;;;26.14;42.57;102389.78;5029713;28;20029;-70
2022/07/12 07:27:30;;;;;;;0.50;0.50;;;;;;;26.16;42.43;102383.47;5029931;28;20036;-70
2022/07/12 07:32:39;;;;;;;;;;;;;;;26.23;42.39;102385.06;5029765;28;20067;-70
2022/07/12 07:35:08;;;;;;;0.65;0.60;;;;;;;26.22;42.50;102379.75;5028462;28;19948;-70
2022/07/12 07:37:34;;;;;;;0.50;0.50;;;;;;;26.23;42.37;102384.16;5029698;28;20063;-70
2022/07/12 07:39:59;;;;;;;0.68;0.50;;;;;;;26.24;42.30;102392.16;5028809;28;20029;-70
2022/07/12 07:42:25;;;;;;;0.73;0.50;;;;;;;26.24;42.38;102381.47;5028820;28;20029;-70
2022/07/12 07:44:50;;;;;;;0.40;0.40;;;;;;;26.27;42.48;102376.97;5029589;28;20048;-70
2022/07/12 07:47:16;;;;;;;0.65;0.43;;;;;;;26.25;42.26;102377.00;5029190;28;20043;-71
2022/07/12 07:49:41;;;;;;;0.80;0.50;;;;;;;26.27;42.53;102379.66;5028888;28;20616;-70
2022/07/12 07:52:06;;;;;;;0.40;0.40;;;;;;;26.29;42.39;102373.31;5028852;28;20053;-70
2022/07/12 07:54:32;;;;;;;0.50;0.50;;;;;;;26.29;42.38;102381.34;5028678;28;20104;-70
2022/07/12 07:56:57;;;;;;;0.47;0.47;;;;;;;26.30;42.40;102380.44;5028599;28;20602;-70
2022/07/12 07:59:23;;;;;;;0.50;0.50;;;;;;;26.32;42.48;102381.28;5029135;28;20040;-70
2022/07/12 08:01:52;;;;;;;0.50;0.50;;;;;;;26.34;42.46;102386.59;5028488;28;20065;-70
2022/07/12 08:04:18;;;;;;;0.50;0.50;;;;;;;26.36;42.33;102382.94;5028416;28;20125;-70
2022/07/12 08:06:44;;;;;;;0.70;0.40;;;;;;;26.39;42.45;102385.53;5028782;28;20021;-70
2022/07/12 08:09:10;;;;;;;0.50;0.50;;;;;;;26.39;42.47;102384.66;5028600;28;20621;-70
2022/07/12 08:11:36;;;;;;;0.47;0.40;;;;;;;26.39;42.44;102379.31;5028795;28;20105;-70
2022/07/12 08:14:03;;;;;;;0.43;0.43;;;;;;;26.42;42.46;102389.91;5029407;28;20033;-71
2022/07/12 08:16:28;;;;;;;0.52;0.50;;;;;;;26.45;42.53;102390.69;5026876;28;20132;-70
2022/07/12 08:18:53;;;;;;;0.50;0.50;;;;;;;26.45;42.42;102382.69;5028722;28;20111;-70
2022/07/12 08:21:19;;;;;;;0.68;0.50;;;;;;;26.45;42.55;102384.47;5028511;28;20084;-71
2022/07/12 08:23:44;;;;;;;0.40;0.40;;;;;;;26.46;42.53;102380.88;5028794;28;20129;-70
2022/07/12 08:26:10;;;;;;;0.40;0.40;;;;;;;26.47;42.49;102386.16;5028946;28;20628;-70
2022/07/12 08:28:35;;;;;;;0.40;0.40;;;;;;;26.47;42.59;102388.84;5027893;28;20037;-70
2022/07/12 08:31:00;;;;;;;0.50;0.50;;;;;;;26.48;42.55;102387.91;5026908;28;20480;-70
2022/07/12 08:33:26;;;;;;;0.40;0.40;;;;;;;26.48;42.72;102385.25;5028487;28;20033;-70
2022/07/12 08:35:51;;;;;;;0.50;0.50;;;;;;;26.49;42.62;102387.00;5028866;28;20076;-70
2022/07/12 08:38:16;;;;;;;0.60;0.50;;;;;;;26.52;42.51;102383.38;5028986;28;20037;-70
2022/07/12 08:40:42;;;;;;;0.57;0.30;;;;;;;26.53;42.54;102383.31;5028199;28;20036;-70
2022/07/12 08:43:08;;;;;;;0.82;0.50;;;;;;;26.56;42.81;102390.38;5026684;28;20033;-71
2022/07/12 08:45:33;;;;;;;0.50;0.43;;;;;;;26.56;42.58;102391.25;5028053;28;20037;-71
2022/07/12 08:47:59;;;;;;;0.65;0.50;;;;;;;26.56;42.66;102383.25;5027138;28;20029;-71
2022/07/12 08:50:26;;;;;;;0.50;0.50;;;;;;;26.56;42.69;102388.59;5028199;28;20107;-70
2022/07/12 08:52:54;;;;;;;0.40;0.40;;;;;;;26.59;42.48;102392.97;5027257;28;20072;-71
2022/07/12 08:55:30;;;;;;;0.50;0.50;;;;;;;26.59;42.57;102383.13;5028572;28;20100;-70
2022/07/12 08:57:58;;;;;;;0.50;0.50;;;;;;;26.61;42.88;102380.41;5028205;28;20034;-71
2022/07/12 09:00:25;;;;;;;0.47;0.47;;;;;;;26.62;42.67;102379.50;5027296;28;20454;-70
2022/07/12 09:02:55;;;;;;;0.50;0.50;;;;;;;26.63;42.47;102375.91;5010465;28;20025;-71
2022/07/12 09:05:29;;;;;;;0.75;0.50;;;;;;;26.67;42.51;102369.53;5028639;28;20076;-71
2022/07/12 09:08:06;;;;;;;0.70;0.50;;;;;;;26.66;42.66;102367.78;5027622;28;20025;-71
2022/07/12 09:10:32;;;;;;;0.50;0.50;;;;;;;26.68;42.76;102363.28;5027433;28;20033;-71
2022/07/12 09:12:58;;;;;;;0.47;0.47;;;;;;;26.69;42.58;102365.03;5027655;28;20718;-71
2022/07/12 09:15:24;;;;;;;0.60;0.50;;;;;;;26.71;42.50;102368.53;5028197;28;20037;-70
2022/07/12 09:18:00;;;;;;;0.77;0.50;;;;;;;26.72;42.78;102362.25;5027950;28;20026;-71
2022/07/12 09:20:34;;;;;;;0.50;0.50;;;;;;;26.73;42.63;102366.69;5027433;28;20057;-71
2022/07/12 09:23:04;;;;;;;0.60;0.50;;;;;;;26.75;42.59;102362.16;5026740;28;20451;-71
2022/07/12 09:25:31;;;;;;;0.50;0.50;;;;;;;26.73;42.67;102371.16;5027955;28;20486;-71
2022/07/12 09:27:58;;;;;;;0.60;0.43;;;;;;;26.73;42.62;102364.00;5027877;28;20022;-70
2022/07/12 09:30:25;;;;;;;0.50;0.50;;;;;;;26.74;42.59;102365.75;5026645;28;20029;-71
2022/07/12 09:39:00;;;;;;;1.05;0.60;;;;;;;26.76;42.77;102377.31;5017523;28;20049;-71
2022/07/12 09:41:26;;;;;;;0.60;0.50;;;;;;;26.79;42.72;102379.00;5025678;28;20072;-71
2022/07/12 09:43:52;;;;;;;0.55;0.50;;;;;;;26.80;42.84;102368.25;5028073;28;20043;-71
2022/07/12 09:46:18;;;;;;;0.60;0.50;;;;;;;26.82;42.62;102363.75;5027504;28;20021;-71
2022/07/12 09:48:45;;;;;;;0.60;0.50;;;;;;;26.79;42.53;102366.50;5026022;28;20025;-71
2022/07/12 09:51:14;;;;;;;0.80;0.60;;;;;;;26.82;43.17;102362.84;5024268;28;20076;-71
2022/07/12 09:53:48;;;;;;;1.58;0.52;;;;;;;26.81;42.92;102361.09;5026798;28;20036;-71
2022/07/12 09:56:19;;;;;;;0.60;0.50;;;;;;;26.80;43.14;102357.53;5025689;28;20037;-71
2022/07/12 09:58:50;;;;;;;0.85;0.50;;;;;;;26.84;42.84;102361.88;5026483;28;20027;-70
2022/07/12 10:01:17;;;;;;;0.50;0.50;;;;;;;26.86;42.81;102359.16;5026349;28;20036;-71
2022/07/12 10:03:43;;;;;;;0.60;0.50;;;;;;;26.88;42.80;102366.25;5027096;28;20048;-70
2022/07/12 10:06:11;;;;;;;0.55;0.50;;;;;;;26.90;42.83;102359.03;5026246;28;20052;-71
2022/07/12 10:08:36;;;;;;;0.52;0.50;;;;;;;26.89;42.80;102364.47;5026708;28;20040;-70
2022/07/12 10:11:02;;;;;;;0.77;0.60;;;;;;;26.91;42.88;102362.59;5026584;28;20037;-71
2022/07/12 10:13:28;;;;;;;0.63;0.50;;;;;;;26.89;42.75;102362.66;5026907;28;20059;-71
2022/07/12 10:16:02;;;;;;;0.60;0.55;;;;;;;26.90;42.76;102371.53;5025177;28;20040;-70
2022/07/12 10:18:28;;;;;;;0.40;0.40;;;;;;;26.94;42.57;102371.41;5026842;28;20083;-71
2022/07/12 10:20:54;;;;;;;0.50;0.50;;;;;;;26.97;42.81;102373.09;5025208;28;20033;-70
2022/07/12 10:23:19;;;;;;;0.50;0.50;;;;;;;27.00;42.81;102373.03;5026578;28;20132;-71
2022/07/12 10:25:47;;;;;;;0.60;0.60;;;;;;;26.96;42.93;102371.34;5026307;28;20029;-71
2022/07/12 10:28:12;;;;;;;0.73;0.60;;;;;;;26.93;42.87;102366.09;5026839;28;20029;-71
2022/07/12 10:30:47;;;;;;;0.88;0.60;;;;;;;26.93;42.77;102371.47;5024957;28;20498;-70
2022/07/12 10:33:19;;;;;;;0.50;0.50;;;;;;;26.92;42.84;102364.34;5026298;28;20040;-71
2022/07/12 10:36:17;;;;;;;0.60;0.60;;;;;;;26.90;43.11;102363.50;5025759;28;21219;-70
2022/07/12 10:39:13;;;;;;;0.60;0.60;;;;;;;26.90;43.05;102366.19;4992069;28;20037;-70
2022/07/12 10:41:41;;;;;;;0.70;0.50;;;;;;;26.90;43.27;102364.38;5025914;28;20491;-70
2022/07/12 10:44:06;;;;;;;0.70;0.60;;;;;;;26.89;43.10;102357.31;5026282;28;20158;-71
2022/07/12 10:46:33;;;;;;;0.63;0.60;;;;;;;26.95;43.02;102358.91;5025809;28;20072;-71
2022/07/12 10:49:25;;;;;;;0.80;0.60;;;;;;;26.93;42.96;102350.03;5026754;28;20028;-70
2022/07/12 10:52:09;;;;;;;0.73;0.55;;;;;;;26.94;43.13;102351.81;5029049;28;20124;-71
2022/07/12 10:54:35;;;;;;;0.55;0.50;;;;;;;26.90;43.14;102344.78;5023997;28;20075;-70
2022/07/12 10:57:00;;;;;;;0.60;0.60;;;;;;;26.91;43.04;102347.41;5030502;28;20626;-71
2022/07/12 10:59:27;;;;;;;0.60;0.60;;;;;;;26.90;43.26;102342.97;5029437;28;20119;-71
2022/07/12 11:01:55;;;;;;;0.50;0.50;;;;;;;26.92;42.97;102343.81;5029755;28;20768;-71
2022/07/12 11:04:21;;;;;;;0.60;0.60;;;;;;;26.92;43.24;102348.28;5030025;28;20179;-71
2022/07/12 11:06:47;;;;;;;0.70;0.60;;;;;;;26.94;43.13;102351.81;5029820;28;20112;-71
2022/07/12 11:09:15;;;;;;;0.70;0.60;;;;;;;26.91;43.04;102354.56;5030267;28;20139;-71
2022/07/12 11:11:43;;;;;;;0.60;0.60;;;;;;;26.89;43.36;102353.75;5029554;28;20029;-71
2022/07/12 11:14:09;;;;;;;0.60;0.60;;;;;;;26.89;43.40;102351.06;5028502;28;20455;-71
2022/07/12 11:16:34;;;;;;;0.60;0.50;;;;;;;26.89;43.09;102351.97;5029497;28;20112;-71
2022/07/12 11:19:00;;;;;;;0.50;0.50;;;;;;;26.91;43.20;102347.41;5030257;28;20047;-71
2022/07/12 11:21:25;;;;;;;0.63;0.60;;;;;;;26.95;43.28;102341.06;5029523;28;20033;-71
2022/07/12 11:23:52;;;;;;;0.60;0.52;;;;;;;26.97;43.19;102343.66;5029541;28;20845;-71
2022/07/12 11:26:17;;;;;;;0.70;0.63;;;;;;;26.94;43.27;102341.09;5029392;28;20026;-71
2022/07/12 11:28:45;;;;;;;0.60;0.50;;;;;;;26.94;43.07;102338.41;5029716;28;20760;-70
2022/07/12 11:31:15;;;;;;;0.63;0.57;;;;;;;26.94;43.13;102338.41;5029320;28;20466;-71
2022/07/12 11:33:53;;;;;;;0.60;0.60;;;;;;;26.94;43.36;102346.44;5029614;28;20040;-71
2022/07/12 11:36:19;;;;;;;0.65;0.50;;;;;;;26.90;43.25;102345.66;5028426;28;20060;-71